SFO weather

San Francisco International Airport
San Francisco, California, United States

Public forecast

Using degrees Fahrenheit for public forecast. Weather courtesy of forecast.io.

METAR (pilot weather report)

Retrieved 2017/03/28 12:56 UTC (57 minutes ago):

KSFO 281256Z 27008KT 10SM FEW200 11/08 A3021

TAF (pilot weather forecast)

Retrieved 2017/03/28 12:27 UTC (1 hour ago):

TAF KSFO 281121Z 2812/2918 28008KT P6SM SKC FM282000 30015KT P6SM SKC FM282300 28018G28KT P6SM SKC FM290500 28012KT P6SM SKC FM291100 27007KT P6SM SKC